createdAt,value
2022-10-05T00:01:56.532Z,31.2
2022-10-05T00:04:13.134Z,31.3
2022-10-05T00:06:30.136Z,31.4
2022-10-05T00:08:46.129Z,31.4
2022-10-05T00:11:01.698Z,30.8
2022-10-05T00:13:17.991Z,31.7
2022-10-05T00:15:33.710Z,31.8
2022-10-05T00:17:50.832Z,31.3
2022-10-05T00:20:07.653Z,31.4
2022-10-05T00:22:24.716Z,31.1
2022-10-05T00:24:41.474Z,31.4
2022-10-05T00:26:58.511Z,31.7
2022-10-05T00:29:15.668Z,31.3
2022-10-05T00:31:32.061Z,31.6
2022-10-05T00:33:49.139Z,31.4
2022-10-05T00:36:05.794Z,31.5
2022-10-05T00:38:22.854Z,31.6
2022-10-05T00:40:39.512Z,31.8
2022-10-05T00:42:55.890Z,31.4
2022-10-05T00:45:11.011Z,30.8
2022-10-05T00:47:26.804Z,31.8
2022-10-05T00:52:01.575Z,31.1
2022-10-05T00:54:18.554Z,31.7
2022-10-05T00:56:34.112Z,31.4
2022-10-05T00:58:49.434Z,31.1
2022-10-05T01:01:05.411Z,31.8
2022-10-05T01:03:22.543Z,31
2022-10-05T01:05:39.310Z,31.2
2022-10-05T01:07:55.910Z,31.1
2022-10-05T01:10:11.565Z,32.1
2022-10-05T01:12:29.013Z,31.8
2022-10-05T01:14:45.456Z,31.4
2022-10-05T01:17:02.519Z,31.4
2022-10-05T01:19:19.323Z,31.2
2022-10-05T01:21:35.818Z,31.4
2022-10-05T01:23:51.426Z,31.1
2022-10-05T01:26:08.306Z,31.7
2022-10-05T01:28:25.411Z,31.3
2022-10-05T01:30:41.640Z,31.1
2022-10-05T01:32:57.449Z,31.7
2022-10-05T01:35:14.531Z,31.8
2022-10-05T01:37:31.554Z,31.4
2022-10-05T01:39:48.422Z,31.7
2022-10-05T01:42:05.195Z,31.4
2022-10-05T01:44:22.252Z,31.5
2022-10-05T01:46:39.098Z,31.4
2022-10-05T01:48:55.573Z,31.5
2022-10-05T01:51:11.214Z,30.9
2022-10-05T01:53:27.751Z,30.9
2022-10-05T01:55:43.030Z,31.9
2022-10-05T01:57:58.907Z,32.3
2022-10-05T02:00:16.101Z,31.6
2022-10-05T02:02:33.017Z,30.8
2022-10-05T02:05:14.208Z,31.3
2022-10-05T02:07:30.334Z,30.9
2022-10-05T02:09:46.147Z,31.5
2022-10-05T02:12:03.046Z,31.3
2022-10-05T02:14:19.390Z,31.3
2022-10-05T02:16:35.110Z,31.9
2022-10-05T02:18:52.035Z,31.3
2022-10-05T02:21:08.335Z,31.1
2022-10-05T02:23:24.145Z,32.1
2022-10-05T02:25:41.074Z,31.3
2022-10-05T02:27:57.988Z,31.1
2022-10-05T02:30:16.651Z,31.1
2022-10-05T02:32:31.593Z,31.2
2022-10-05T02:34:48.392Z,31.2
2022-10-05T02:37:04.591Z,31.3
2022-10-05T02:39:20.317Z,31.4
2022-10-05T02:41:37.228Z,31.1
2022-10-05T02:43:54.146Z,31
2022-10-05T02:48:28.038Z,31.1
2022-10-05T02:50:45.197Z,31.6
2022-10-05T02:53:01.937Z,31.2
2022-10-05T02:55:18.341Z,31.1
2022-10-05T02:57:34.477Z,31.2
2022-10-05T02:59:50.331Z,31.7
2022-10-05T03:02:07.285Z,30.8
2022-10-05T03:04:24.054Z,31
2022-10-05T03:06:41.010Z,31.2
2022-10-05T03:08:57.923Z,31
2022-10-05T03:11:14.193Z,31.1
2022-10-05T03:13:29.680Z,32.1
2022-10-05T03:15:46.718Z,30.8
2022-10-05T03:18:03.568Z,31.3
2022-10-05T03:20:20.382Z,31.5
2022-10-05T03:22:37.249Z,30.8
2022-10-05T03:24:54.008Z,30.8
2022-10-05T03:27:10.948Z,31.3
2022-10-05T03:29:27.130Z,30.9
2022-10-05T03:31:42.904Z,32.1
2022-10-05T03:33:59.521Z,31.1
2022-10-05T03:36:15.133Z,31
2022-10-05T03:38:32.096Z,31.7
2022-10-05T03:40:49.057Z,30.8
2022-10-05T03:43:05.963Z,30.8
2022-10-05T03:45:23.304Z,31
2022-10-05T03:47:39.659Z,31.1
2022-10-05T03:49:56.403Z,30.9
2022-10-05T03:52:13.186Z,31.4
2022-10-05T03:54:30.072Z,31.3
2022-10-05T03:56:47.123Z,31.2
2022-10-05T03:59:03.770Z,30.9
2022-10-05T04:01:20.774Z,30.9
2022-10-05T04:03:37.532Z,31.1
2022-10-05T04:05:53.801Z,30.8
2022-10-05T04:08:09.011Z,32.4
2022-10-05T04:10:25.030Z,31.8
2022-10-05T04:12:42.045Z,31.3
2022-10-05T04:14:58.439Z,30.7
2022-10-05T04:17:14.349Z,31.4
2022-10-05T04:19:31.824Z,31.6
2022-10-05T04:21:48.423Z,31.4
2022-10-05T04:24:05.155Z,31
2022-10-05T04:26:22.049Z,31.3
2022-10-05T04:28:38.914Z,31.3
2022-10-05T04:30:56.454Z,31.5
2022-10-05T04:33:12.656Z,30.9
2022-10-05T04:35:29.542Z,31.1
2022-10-05T04:37:46.693Z,30.9
2022-10-05T04:40:01.493Z,31.6
2022-10-05T04:42:18.429Z,31.1
2022-10-05T04:44:34.823Z,30.9
2022-10-05T04:46:51.454Z,31.4
2022-10-05T04:49:07.518Z,31.4
2022-10-05T04:51:23.953Z,30.9
2022-10-05T04:53:39.895Z,30.1
2022-10-05T04:55:56.839Z,31.5
2022-10-05T04:58:13.831Z,31.3
2022-10-05T05:00:30.838Z,31.4
2022-10-05T05:02:47.678Z,31.6
2022-10-05T05:05:04.047Z,31.6
2022-10-05T05:07:33.644Z,30.9
2022-10-05T05:09:49.766Z,32.7
2022-10-05T05:12:06.821Z,31.3
2022-10-05T05:14:23.785Z,30.9
2022-10-05T05:16:40.616Z,31.6
2022-10-05T05:18:57.635Z,31.5
2022-10-05T05:21:13.945Z,31.7
2022-10-05T05:23:29.864Z,31.3
2022-10-05T05:25:46.772Z,32.2
2022-10-05T05:28:03.752Z,31.6
2022-10-05T05:30:20.843Z,32.1
2022-10-05T05:32:37.781Z,32.3
2022-10-05T05:34:54.740Z,32.3
2022-10-05T05:37:11.219Z,32.6
2022-10-05T05:39:27.071Z,33.2
2022-10-05T05:41:44.191Z,33.9
2022-10-05T05:44:01.091Z,33.6
2022-10-05T05:46:18.298Z,33.2
2022-10-05T05:48:47.029Z,34.3
2022-10-05T05:51:02.394Z,34.1
2022-10-05T05:53:17.801Z,35.9
2022-10-05T05:55:34.314Z,35.2
2022-10-05T05:57:50.969Z,34.6
2022-10-05T06:00:08.069Z,34.9
2022-10-05T06:02:28.326Z,35.4
2022-10-05T06:04:45.108Z,35.3
2022-10-05T06:07:02.211Z,35.4
2022-10-05T06:09:19.022Z,35.2
2022-10-05T06:11:36.120Z,34.9
2022-10-05T06:13:52.878Z,35.3
2022-10-05T06:16:09.776Z,35
2022-10-05T06:18:26.093Z,34.9
2022-10-05T06:20:41.666Z,35.7
2022-10-05T06:22:58.796Z,35.4
2022-10-05T06:27:32.012Z,35.4
2022-10-05T06:29:47.579Z,34.6
2022-10-05T06:32:04.697Z,35.4
2022-10-05T06:34:21.578Z,34.3
2022-10-05T06:36:38.283Z,34.3
2022-10-05T06:38:55.261Z,34.4
2022-10-05T06:41:12.195Z,34.2
2022-10-05T06:43:28.842Z,34.2
2022-10-05T06:45:45.613Z,34.1
2022-10-05T06:48:05.298Z,34
2022-10-05T06:50:16.706Z,33.4
2022-10-05T06:52:32.539Z,33.2
2022-10-05T06:54:49.301Z,33.8
2022-10-05T06:57:05.779Z,33.9
2022-10-05T06:59:21.125Z,33.5
2022-10-05T07:01:37.903Z,33.1
2022-10-05T07:03:54.367Z,33.3
2022-10-05T07:06:10.306Z,33.6
2022-10-05T07:08:26.082Z,32.4
2022-10-05T07:10:42.583Z,33.1
2022-10-05T07:12:59.244Z,33.4
2022-10-05T07:15:15.741Z,33.8
2022-10-05T07:17:32.397Z,33.4
2022-10-05T07:19:48.694Z,33.3
2022-10-05T07:22:05.362Z,33.3
2022-10-05T07:24:21.659Z,33.2
2022-10-05T07:26:38.448Z,33.8
2022-10-05T07:28:54.124Z,33.6
2022-10-05T07:33:26.253Z,33.3
2022-10-05T07:35:42.392Z,33.2
2022-10-05T07:37:58.796Z,33.3
2022-10-05T07:40:30.997Z,33.4
2022-10-05T07:45:18.487Z,33.3
2022-10-05T07:47:33.792Z,31.9
2022-10-05T07:49:50.029Z,33.2
2022-10-05T07:52:06.145Z,32.8
2022-10-05T07:54:22.193Z,32.7
2022-10-05T07:56:38.075Z,31.4
2022-10-05T07:58:53.613Z,31.4
2022-10-05T08:01:08.444Z,32.2
2022-10-05T08:03:23.898Z,33
2022-10-05T08:05:40.027Z,32.3
2022-10-05T08:07:55.683Z,31.7
2022-10-05T08:10:11.866Z,31.4
2022-10-05T08:12:27.121Z,32.1
2022-10-05T08:14:43.318Z,31.8
2022-10-05T08:16:58.934Z,31.6
2022-10-05T08:19:13.809Z,31.9
2022-10-05T08:21:29.101Z,32.9
2022-10-05T08:23:44.915Z,31.5
2022-10-05T08:25:59.699Z,32.5
2022-10-05T08:28:14.836Z,32.6
2022-10-05T08:30:29.679Z,33.2
2022-10-05T08:32:44.887Z,32.6
2022-10-05T08:34:59.879Z,33.3
2022-10-05T08:37:14.789Z,32.6
2022-10-05T08:39:29.776Z,32.9
2022-10-05T08:41:45.031Z,33.9
2022-10-05T08:44:00.044Z,33.4
2022-10-05T08:46:15.024Z,33.8
2022-10-05T08:48:30.076Z,33.8
2022-10-05T08:50:45.076Z,33.5
2022-10-05T08:53:00.434Z,33.2
2022-10-05T08:55:15.293Z,33.2
2022-10-05T08:57:30.284Z,33.6
2022-10-05T08:59:45.630Z,34.1
2022-10-05T09:02:00.780Z,33.4
2022-10-05T09:04:15.694Z,32.6
2022-10-05T09:06:30.741Z,33.6
2022-10-05T09:08:46.088Z,33.9
2022-10-05T09:11:01.095Z,33.7
2022-10-05T09:13:16.482Z,33.4
2022-10-05T09:15:41.917Z,34.1
2022-10-05T09:17:57.076Z,33.7
2022-10-05T09:20:12.342Z,33.6
2022-10-05T09:22:27.775Z,34.3
2022-10-05T09:24:46.245Z,32.6
2022-10-05T09:26:58.194Z,33.9
2022-10-05T09:29:13.496Z,34.8
2022-10-05T09:31:28.912Z,34.4
2022-10-05T09:33:44.175Z,34.6
2022-10-05T09:35:59.451Z,34.3
2022-10-05T09:38:14.827Z,34.4
2022-10-05T09:40:30.117Z,33.9
2022-10-05T09:42:45.509Z,34.5
2022-10-05T09:45:00.864Z,33.9
2022-10-05T09:47:16.179Z,34.4
2022-10-05T09:49:31.559Z,34.1
2022-10-05T09:51:47.196Z,34.1
2022-10-05T09:54:02.308Z,34.4
2022-10-05T09:56:17.741Z,34.6
2022-10-05T09:58:33.118Z,34.7
2022-10-05T10:00:51.545Z,34.6
2022-10-05T10:03:06.817Z,35
2022-10-05T10:05:22.130Z,35.1
2022-10-05T10:07:37.985Z,34.8
2022-10-05T10:09:52.911Z,33.6
2022-10-05T10:12:08.356Z,34.7
2022-10-05T10:14:23.718Z,34.7
2022-10-05T10:16:39.268Z,34.6
2022-10-05T10:18:54.703Z,34.6
2022-10-05T10:23:25.741Z,33.4
2022-10-05T10:25:41.138Z,34.4
2022-10-05T10:27:56.689Z,34.1
2022-10-05T10:30:11.965Z,34.4
2022-10-05T10:34:42.896Z,34
2022-10-05T10:36:58.450Z,34.5
2022-10-05T10:39:13.939Z,34.2
2022-10-05T10:41:29.340Z,34.5
2022-10-05T10:43:44.888Z,34.4
2022-10-05T10:46:00.373Z,34.5
2022-10-05T10:48:15.618Z,34.8
2022-10-05T10:50:31.138Z,34.6
2022-10-05T10:52:46.851Z,34.2
2022-10-05T10:55:02.028Z,33.2
2022-10-05T10:57:17.653Z,34.9
2022-10-05T10:59:33.195Z,34.6
2022-10-05T11:04:04.013Z,33.6
2022-10-05T11:06:19.538Z,35
2022-10-05T11:08:34.954Z,34.3
2022-10-05T11:10:50.690Z,34.4
2022-10-05T11:13:05.975Z,34.1
2022-10-05T11:15:21.540Z,34.8
2022-10-05T11:17:37.034Z,34.6
2022-10-05T11:20:03.405Z,34.7
2022-10-05T11:22:07.983Z,34.7
2022-10-05T11:24:23.501Z,34.5
2022-10-05T11:26:38.936Z,34.2
2022-10-05T11:28:54.369Z,34.6
2022-10-05T11:31:09.898Z,34.5
2022-10-05T11:33:25.282Z,34.9
2022-10-05T11:35:40.899Z,34.9
2022-10-05T11:37:56.585Z,34.5
2022-10-05T11:40:12.054Z,33.3
2022-10-05T11:42:27.356Z,34.5
2022-10-05T11:44:42.993Z,34.5
2022-10-05T11:46:58.322Z,34.2
2022-10-05T11:49:13.773Z,34.3
2022-10-05T11:51:29.354Z,33.6
2022-10-05T11:53:44.991Z,34.9
2022-10-05T11:56:13.058Z,34.4
2022-10-05T11:58:28.573Z,34.7
2022-10-05T12:00:44.079Z,34.4
2022-10-05T12:02:59.636Z,34.8
2022-10-05T12:05:15.021Z,34.3
2022-10-05T12:07:30.531Z,34.2
2022-10-05T12:09:45.991Z,34.6
2022-10-05T12:14:16.982Z,33.8
2022-10-05T12:16:32.413Z,34.4
2022-10-05T12:18:47.956Z,34.4
2022-10-05T12:21:03.993Z,34.4
2022-10-05T12:23:19.226Z,33.6
2022-10-05T12:25:34.457Z,32.3
2022-10-05T12:27:49.985Z,34.4
2022-10-05T12:30:05.428Z,34.4
2022-10-05T12:32:20.925Z,34.4
2022-10-05T12:34:36.355Z,34.8
2022-10-05T12:37:10.406Z,33.6
2022-10-05T12:39:25.948Z,33.5
2022-10-05T12:41:41.377Z,33.9
2022-10-05T12:43:56.883Z,34.2
2022-10-05T12:46:12.475Z,34.5
2022-10-05T12:48:28.111Z,33.8
2022-10-05T12:50:43.480Z,32.4
2022-10-05T12:52:58.955Z,34.3
2022-10-05T12:55:14.429Z,33.6
2022-10-05T12:57:30.019Z,33.8
2022-10-05T12:59:45.513Z,34.6
2022-10-05T13:02:01.273Z,34
2022-10-05T13:04:16.468Z,34.2
2022-10-05T13:06:32.234Z,34.1
2022-10-05T13:08:47.622Z,34.6
2022-10-05T13:11:03.368Z,34
2022-10-05T13:13:18.635Z,34.7
2022-10-05T13:15:34.074Z,33.8
2022-10-05T13:17:49.485Z,33.6
2022-10-05T13:20:05.327Z,34.9
2022-10-05T13:22:20.623Z,33.6
2022-10-05T13:24:36.107Z,34
2022-10-05T13:26:51.688Z,34.3
2022-10-05T13:29:07.107Z,34.2
2022-10-05T13:31:22.593Z,33.4
2022-10-05T13:33:38.368Z,34.3
2022-10-05T13:35:53.704Z,33.3
2022-10-05T13:38:09.297Z,33.8
2022-10-05T13:40:24.812Z,33.7
2022-10-05T13:42:40.335Z,34.6
2022-10-05T13:47:11.531Z,33.3
2022-10-05T13:49:26.963Z,33.8
2022-10-05T13:51:42.527Z,34.1
2022-10-05T13:53:58.055Z,33.9
2022-10-05T13:56:13.602Z,33.7
2022-10-05T13:58:29.277Z,34.1
2022-10-05T14:00:44.679Z,34
2022-10-05T14:03:00.199Z,34.3
2022-10-05T14:05:15.747Z,34.6
2022-10-05T14:07:31.220Z,33.5
2022-10-05T14:09:46.852Z,33.9
2022-10-05T14:12:02.428Z,34.4
2022-10-05T14:14:17.880Z,34.1
2022-10-05T14:16:33.560Z,33.4
2022-10-05T14:18:49.253Z,34.3
2022-10-05T14:21:04.672Z,32.6
2022-10-05T14:23:22.246Z,34.1
2022-10-05T14:25:45.805Z,33.6
2022-10-05T14:28:01.433Z,33.3
2022-10-05T14:30:16.912Z,33.7
2022-10-05T14:32:32.457Z,33.9
2022-10-05T14:34:48.035Z,34.3
2022-10-05T14:37:03.689Z,33.4
2022-10-05T14:39:19.159Z,34.3
2022-10-05T14:41:34.720Z,33.7
2022-10-05T14:43:50.312Z,33.6
2022-10-05T14:46:05.886Z,33.5
2022-10-05T14:48:21.411Z,33.6
2022-10-05T14:50:37.314Z,34.6
2022-10-05T14:52:54.013Z,31.3
2022-10-05T14:55:10.422Z,31.7
2022-10-05T14:57:26.980Z,31.4
2022-10-05T14:59:42.792Z,31
2022-10-05T15:01:57.785Z,31.8
2022-10-05T15:04:13.417Z,31.9
2022-10-05T15:06:29.240Z,31.8
2022-10-05T15:08:44.311Z,32.2
2022-10-05T15:10:59.948Z,32.3
2022-10-05T15:13:16.562Z,31.4
2022-10-05T15:15:33.016Z,31.1
2022-10-05T15:17:49.374Z,30.9
2022-10-05T15:20:05.771Z,30.4
2022-10-05T15:22:22.128Z,30.8
2022-10-05T15:24:42.744Z,30.8
2022-10-05T15:26:54.086Z,31.1
2022-10-05T15:29:09.543Z,32
2022-10-05T15:31:25.859Z,31.1
2022-10-05T15:33:42.309Z,31.1
2022-10-05T15:35:58.661Z,31.1
2022-10-05T15:38:14.572Z,30.6
2022-10-05T15:40:29.950Z,31.7
2022-10-05T15:42:45.933Z,31.4
2022-10-05T15:45:01.531Z,32.2
2022-10-05T15:47:17.915Z,31.9
2022-10-05T15:49:34.646Z,31.1
2022-10-05T15:51:50.790Z,30.8
2022-10-05T15:54:07.188Z,30.4
2022-10-05T15:56:23.511Z,30.6
2022-10-05T15:58:39.859Z,30.9
2022-10-05T16:00:56.252Z,30.1
2022-10-05T16:03:12.589Z,31.1
2022-10-05T16:05:28.959Z,30.6
2022-10-05T16:07:45.508Z,30.4
2022-10-05T16:10:01.774Z,30.6
2022-10-05T16:12:18.157Z,30.4
2022-10-05T16:14:34.432Z,30.2
2022-10-05T16:16:50.846Z,30.5
2022-10-05T16:19:07.254Z,30.4
2022-10-05T16:21:23.533Z,30.9
2022-10-05T16:23:40.004Z,30.4
2022-10-05T16:25:55.970Z,32.1
2022-10-05T16:28:10.934Z,31.4
2022-10-05T16:30:26.064Z,32.3
2022-10-05T16:32:42.183Z,32.6
2022-10-05T16:34:59.048Z,32.3
2022-10-05T16:37:15.481Z,32
2022-10-05T16:39:32.173Z,32.3
2022-10-05T16:41:48.764Z,32.1
2022-10-05T16:44:04.835Z,32.2
2022-10-05T16:46:22.145Z,31.8
2022-10-05T16:48:36.633Z,32.3
2022-10-05T16:50:52.238Z,32.1
2022-10-05T16:53:09.121Z,33.2
2022-10-05T16:55:25.880Z,32.4
2022-10-05T16:57:42.462Z,32.2
2022-10-05T16:59:58.844Z,32.4
2022-10-05T17:02:14.248Z,32.1
2022-10-05T17:06:47.291Z,32.2
2022-10-05T17:09:02.233Z,31.9
2022-10-05T17:11:18.361Z,32.8
2022-10-05T17:13:34.910Z,32.2
2022-10-05T17:15:51.865Z,32.5
2022-10-05T17:18:09.907Z,32.5
2022-10-05T17:20:24.855Z,32.3
2022-10-05T17:22:40.334Z,32.1
2022-10-05T17:24:56.588Z,32.6
2022-10-05T17:27:12.337Z,32.8
2022-10-05T17:29:29.049Z,32.4
2022-10-05T17:34:02.866Z,32.4
2022-10-05T17:36:18.830Z,32.4
2022-10-05T17:38:34.395Z,32.2
2022-10-05T17:40:51.415Z,31.8
2022-10-05T17:43:07.374Z,31.9
2022-10-05T17:45:23.077Z,32.1
2022-10-05T17:47:43.084Z,32.4
2022-10-05T17:49:56.532Z,32
2022-10-05T17:52:13.354Z,31.8
2022-10-05T17:54:30.165Z,31.7
2022-10-05T17:56:46.711Z,32.1
2022-10-05T17:59:03.371Z,31.8
2022-10-05T18:03:36.750Z,32.2
2022-10-05T18:05:53.753Z,32.1
2022-10-05T18:08:10.256Z,31.9
2022-10-05T18:10:26.956Z,31.9
2022-10-05T18:12:43.661Z,31.8
2022-10-05T18:15:00.398Z,31.9
2022-10-05T18:17:17.104Z,31.8
2022-10-05T18:19:33.768Z,31.7
2022-10-05T18:21:50.583Z,31.8
2022-10-05T18:24:07.199Z,32.2
2022-10-05T18:26:23.897Z,32.1
2022-10-05T18:28:40.693Z,31.9
2022-10-05T18:30:57.459Z,32
2022-10-05T18:33:14.093Z,32.1
2022-10-05T18:35:30.834Z,32.1
2022-10-05T18:37:47.580Z,32.4
2022-10-05T18:40:04.315Z,31.9
2022-10-05T18:42:21.178Z,32.2
2022-10-05T18:44:37.698Z,32.3
2022-10-05T18:46:54.531Z,32.3
2022-10-05T18:49:11.210Z,32.2
2022-10-05T18:51:28.215Z,32.2
2022-10-05T18:53:44.715Z,32.3
2022-10-05T18:56:01.471Z,32.3
2022-10-05T18:58:18.333Z,32.4
2022-10-05T19:00:35.033Z,32.4
2022-10-05T19:02:51.797Z,32.1
2022-10-05T19:05:18.913Z,32.4
2022-10-05T19:07:36.911Z,32.4
2022-10-05T19:09:54.285Z,32.2
2022-10-05T19:12:10.445Z,32
2022-10-05T19:14:27.172Z,32.2
2022-10-05T19:16:44.146Z,32.3
2022-10-05T19:19:00.767Z,32.4
2022-10-05T19:21:17.506Z,31.9
2022-10-05T19:23:34.322Z,32.4
2022-10-05T19:25:51.059Z,32.1
2022-10-05T19:28:07.890Z,32.3
2022-10-05T19:30:24.578Z,32.3
2022-10-05T19:32:41.361Z,32.4
2022-10-05T19:34:58.167Z,32.4
2022-10-05T19:37:14.818Z,31.6
2022-10-05T19:39:31.668Z,32.3
2022-10-05T19:41:48.394Z,32.2
2022-10-05T19:44:05.862Z,31.9
2022-10-05T19:48:38.866Z,31.9
2022-10-05T19:50:54.942Z,32.2
2022-10-05T19:53:10.650Z,31.4
2022-10-05T19:55:27.540Z,32.3
2022-10-05T19:57:43.811Z,32.3
2022-10-05T19:59:59.439Z,31.9
2022-10-05T20:02:16.645Z,32
2022-10-05T20:04:33.368Z,31.6
2022-10-05T20:06:50.130Z,31.9
2022-10-05T20:09:06.953Z,32.3
2022-10-05T20:11:23.215Z,32.3
2022-10-05T20:13:38.814Z,31.8
2022-10-05T20:15:55.651Z,32.4
2022-10-05T20:18:12.537Z,32
2022-10-05T20:20:29.342Z,32
2022-10-05T20:22:46.146Z,32
2022-10-05T20:25:03.020Z,31.8
2022-10-05T20:27:19.832Z,31.8
2022-10-05T20:29:36.611Z,32.1
2022-10-05T20:31:53.570Z,31.9
2022-10-05T20:34:09.588Z,31.9
2022-10-05T20:36:24.815Z,32.1
2022-10-05T20:38:41.275Z,31.7
2022-10-05T20:40:57.556Z,32.3
2022-10-05T20:43:14.474Z,31.5
2022-10-05T20:45:31.408Z,31.8
2022-10-05T20:47:48.557Z,31.7
2022-10-05T20:50:05.012Z,31.9
2022-10-05T20:52:21.736Z,31.9
2022-10-05T20:54:38.589Z,31.7
2022-10-05T20:56:55.334Z,31.9
2022-10-05T20:59:12.255Z,31.9
2022-10-05T21:01:29.047Z,32.1
2022-10-05T21:03:45.969Z,32.1
2022-10-05T21:08:19.431Z,31.7
2022-10-05T21:10:36.150Z,31.8
2022-10-05T21:12:53.073Z,31.8
2022-10-05T21:15:09.814Z,31.9
2022-10-05T21:17:26.671Z,32.1
2022-10-05T21:19:43.464Z,31.9
2022-10-05T21:22:00.319Z,31.9
2022-10-05T21:24:17.199Z,32.1
2022-10-05T21:26:34.006Z,32.1
2022-10-05T21:28:50.719Z,32.3
2022-10-05T21:31:07.486Z,31.6
2022-10-05T21:33:24.730Z,31.8
2022-10-05T21:35:41.093Z,31.7
2022-10-05T21:37:57.876Z,32.2
2022-10-05T21:40:14.816Z,31.9
2022-10-05T21:42:31.448Z,31.9
2022-10-05T21:44:49.216Z,31.8
2022-10-05T21:47:05.207Z,32
2022-10-05T21:49:21.984Z,31.5
2022-10-05T21:51:38.156Z,31.9
2022-10-05T21:53:53.351Z,32.1
2022-10-05T21:56:09.417Z,32.3
2022-10-05T21:58:26.773Z,31.9
2022-10-05T22:00:43.343Z,31.2
2022-10-05T22:03:00.231Z,31.8
2022-10-05T22:05:17.189Z,31.7
2022-10-05T22:07:33.842Z,31.6
2022-10-05T22:09:50.675Z,31.6
2022-10-05T22:12:07.450Z,31.6
2022-10-05T22:14:24.429Z,32
2022-10-05T22:16:41.219Z,31.7
2022-10-05T22:18:58.156Z,31.6
2022-10-05T22:21:14.748Z,32.1
2022-10-05T22:23:31.690Z,31.8
2022-10-05T22:25:48.597Z,31.8
2022-10-05T22:28:05.416Z,31.8
2022-10-05T22:30:22.213Z,31.8
2022-10-05T22:32:39.018Z,31.8
2022-10-05T22:34:55.851Z,31.7
2022-10-05T22:37:12.774Z,32.1
2022-10-05T22:39:29.578Z,31.1
2022-10-05T22:41:46.341Z,31.8
2022-10-05T22:44:03.191Z,31.9
2022-10-05T22:46:20.144Z,31.7
2022-10-05T22:48:36.747Z,31.6
2022-10-05T22:50:53.018Z,31.6
2022-10-05T22:53:08.782Z,32.1
2022-10-05T22:55:25.171Z,31.9
2022-10-05T22:57:41.069Z,31.3
2022-10-05T22:59:58.179Z,31.9
2022-10-05T23:02:30.388Z,31.2
2022-10-05T23:04:47.623Z,31.8
2022-10-05T23:07:04.162Z,31.6
2022-10-05T23:09:21.011Z,31.5
2022-10-05T23:11:37.761Z,31.4
2022-10-05T23:13:54.632Z,31.5
2022-10-05T23:16:10.930Z,31.8
2022-10-05T23:20:42.177Z,33.4
2022-10-05T23:22:59.537Z,32
2022-10-05T23:25:16.043Z,31.6
2022-10-05T23:27:33.100Z,31.5
2022-10-05T23:29:50.220Z,31.7
2022-10-05T23:32:06.791Z,31.4
2022-10-05T23:34:23.683Z,31.5
2022-10-05T23:38:57.441Z,31.6
2022-10-05T23:41:14.221Z,31.5
2022-10-05T23:43:31.143Z,31.4
2022-10-05T23:45:48.143Z,31.6
2022-10-05T23:48:04.977Z,31.3
2022-10-05T23:50:21.754Z,31.5
2022-10-05T23:52:38.750Z,31.8
2022-10-05T23:54:55.526Z,31.8
2022-10-05T23:57:12.396Z,31.9
2022-10-05T23:59:29.251Z,31.6
